Time;durP1;ratioP1;P1;durP2;ratioP2;P2;SDS_P1;SDS_P2;PMS_P1;PMS_P2;Temp;Humidity;BMP_temperature;BMP_pressure;BME280_temperature;BME280_humidity;BME280_pressure;Samples;Min_cycle;Max_cycle;Signal;HPM_P1;HPM_P2
2021/04/13 04:05:09;;;;;;;5.10;4.60;;;3.00;53.20;;;;;;6278685;22;20197;-94
2021/04/13 04:07:42;;;;;;;8.00;7.30;;;2.80;54.10;;;;;;6253111;22;20176;-93
2021/04/13 04:10:54;;;;;;;7.70;6.90;;;3.10;54.10;;;;;;6281772;22;20145;-93
2021/04/13 04:13:24;;;;;;;7.13;5.10;;;2.70;54.00;;;;;;6254582;22;20172;-92
2021/04/13 04:16:42;;;;;;;6.82;6.28;;;3.20;54.20;;;;;;6254176;22;20214;-94
2021/04/13 04:22:26;;;;;;;6.65;6.05;;;3.20;52.80;;;;;;6273749;22;20240;-94
2021/04/13 04:24:53;;;;;;;7.27;6.50;;;3.40;52.30;;;;;;6255498;22;20153;-95
2021/04/13 04:27:39;;;;;;;8.48;7.78;;;4.60;53.10;;;;;;6254928;22;20364;-92
2021/04/13 04:30:11;;;;;;;7.88;7.07;;;3.10;51.30;;;;;;6254734;22;20144;-94
2021/04/13 04:32:44;;;;;;;7.55;6.85;;;3.40;52.60;;;;;;6255032;22;20160;-94
2021/04/13 04:35:49;;;;;;;7.60;6.88;;;4.20;53.00;;;;;;6255156;22;20152;-95
2021/04/13 04:38:36;;;;;;;9.40;8.45;;;3.40;51.80;;;;;;6254000;22;20145;-92
2021/04/13 04:41:06;;;;;;;10.32;9.13;;;3.50;51.80;;;;;;6254670;22;20138;-91
2021/04/13 04:43:55;;;;;;;11.35;9.85;;;3.20;53.50;;;;;;6254239;22;20149;-91
2021/04/13 04:46:59;;;;;;;9.30;8.23;;;3.20;54.70;;;;;;6253221;22;20145;-93
2021/04/13 04:50:05;;;;;;;7.90;7.10;;;3.20;54.70;;;;;;6253830;22;20141;-93
2021/04/13 04:52:30;;;;;;;7.22;6.53;;;2.80;55.40;;;;;;6255139;22;20144;-91
2021/04/13 04:55:04;;;;;;;7.73;7.00;;;3.00;54.50;;;;;;6255464;22;20146;-94
2021/04/13 04:57:30;;;;;;;7.32;6.38;;;3.40;53.40;;;;;;6253923;22;20150;-93
2021/04/13 04:59:56;;;;;;;9.37;8.43;;;4.00;53.40;;;;;;6254956;22;20160;-92
2021/04/13 05:02:28;;;;;;;8.27;7.13;;;3.90;52.80;;;;;;6255067;22;20142;-93
2021/04/13 05:05:10;;;;;;;7.38;6.70;;;4.40;52.90;;;;;;6254759;22;20530;-93
2021/04/13 05:07:35;;;;;;;7.75;6.68;;;3.70;51.60;;;;;;6255535;22;20279;-94
2021/04/13 05:10:06;;;;;;;7.50;6.20;;;4.80;51.80;;;;;;6256895;22;20137;-94
2021/04/13 05:12:31;;;;;;;7.60;6.82;;;4.00;51.00;;;;;;6258454;22;20185;-91
2021/04/13 05:15:16;;;;;;;10.00;6.80;;;4.80;51.50;;;;;;6255359;22;20172;-92
2021/04/13 05:17:42;;;;;;;5.75;5.32;;;4.10;50.70;;;;;;6253351;22;20152;-92
2021/04/13 05:20:26;;;;;;;7.37;6.67;;;3.90;50.40;;;;;;6253419;22;20506;-91
2021/04/13 05:22:53;;;;;;;7.75;6.80;;;3.70;50.30;;;;;;6253677;22;20148;-92
2021/04/13 05:25:54;;;;;;;7.55;6.35;;;3.90;50.60;;;;;;6254417;22;20232;-92
2021/04/13 05:28:20;;;;;;;8.52;6.65;;;3.60;50.80;;;;;;6255049;22;20247;-90
2021/04/13 05:30:49;;;;;;;8.85;7.30;;;3.80;52.30;;;;;;6254706;22;20198;-90
2021/04/13 05:33:15;;;;;;;9.88;7.85;;;3.50;52.90;;;;;;6254064;22;20307;-91
2021/04/13 05:36:07;;;;;;;8.07;7.28;;;3.60;53.10;;;;;;6254125;22;20153;-92
2021/04/13 05:38:41;;;;;;;10.35;8.15;;;3.60;52.80;;;;;;6253803;22;20206;-91
2021/04/13 05:41:14;;;;;;;9.40;8.52;;;4.00;53.00;;;;;;6280791;22;20188;-92
2021/04/13 05:43:44;;;;;;;9.65;8.73;;;4.50;53.40;;;;;;6255041;22;20179;-91
2021/04/13 05:46:15;;;;;;;10.13;9.23;;;3.90;53.10;;;;;;6254377;22;20495;-90
2021/04/13 05:48:56;;;;;;;9.50;7.70;;;4.50;53.30;;;;;;6253292;22;20156;-89
2021/04/13 05:51:21;;;;;;;11.30;10.18;;;4.10;52.20;;;;;;6253416;22;20157;-90
2021/04/13 05:53:47;;;;;;;9.50;8.63;;;4.60;52.10;;;;;;6281095;22;20161;-90
2021/04/13 05:56:19;;;;;;;7.70;7.00;;;4.80;51.50;;;;;;6253438;22;20152;-90
2021/04/13 05:58:49;;;;;;;8.60;7.35;;;4.80;50.90;;;;;;6253916;22;20382;-89
2021/04/13 06:01:35;;;;;;;8.60;7.80;;;4.90;50.30;;;;;;6253956;22;20141;-90
2021/04/13 06:04:02;;;;;;;6.55;5.85;;;5.70;50.80;;;;;;6253087;22;20184;-90
2021/04/13 06:06:36;;;;;;;6.45;5.85;;;5.40;50.90;;;;;;6281042;22;20571;-90
2021/04/13 06:09:10;;;;;;;7.37;6.67;;;6.20;51.50;;;;;;6253286;22;20148;-90
2021/04/13 06:11:36;;;;;;;5.60;5.20;;;7.00;46.50;;;;;;6253314;22;20145;-90
2021/04/13 06:17:42;;;;;;;7.07;5.63;;;8.30;42.70;;;;;;6281434;22;20171;-90
2021/04/13 06:20:10;;;;;;;7.13;6.50;;;9.20;38.50;;;;;;6254250;22;20168;-90
2021/04/13 06:23:20;;;;;;;6.20;5.60;;;9.70;35.40;;;;;;6254316;22;20149;-92
2021/04/13 06:25:46;;;;;;;5.80;5.30;;;10.30;33.10;;;;;;6255921;22;20462;-91
2021/04/13 06:28:39;;;;;;;6.17;5.67;;;10.90;31.90;;;;;;6255454;22;20175;-91
2021/04/13 06:31:05;;;;;;;5.13;4.63;;;11.20;30.60;;;;;;6254404;22;20702;-88
2021/04/13 06:33:48;;;;;;;4.70;4.40;;;11.60;30.80;;;;;;6256259;22;20416;-88
2021/04/13 06:36:23;;;;;;;5.28;4.78;;;11.90;30.00;;;;;;6254926;22;20370;-89
2021/04/13 06:38:52;;;;;;;6.10;5.50;;;12.50;29.10;;;;;;6257316;22;20610;-90
2021/04/13 06:41:21;;;;;;;6.33;5.83;;;13.00;28.10;;;;;;6255723;22;20368;-90
2021/04/13 06:44:38;;;;;;;4.90;4.40;;;13.90;27.10;;;;;;6259967;22;20898;-91
2021/04/13 06:47:15;;;;;;;7.00;6.37;;;13.60;26.60;;;;;;6260752;22;20371;-90
2021/04/13 06:50:29;;;;;;;6.27;5.87;;;13.60;25.90;;;;;;6257842;22;20375;-88
2021/04/13 06:56:23;;;;;;;5.70;5.07;;;13.20;27.30;;;;;;6282814;22;20419;-89
2021/04/13 06:59:01;;;;;;;6.10;5.50;;;13.00;26.90;;;;;;6255623;22;20367;-89
2021/04/13 07:05:11;;;;;;;6.63;6.03;;;13.00;27.10;;;;;;6284456;22;20438;-90
2021/04/13 07:08:12;;;;;;;6.87;6.10;;;13.10;27.30;;;;;;6256781;22;20383;-90
2021/04/13 07:10:47;;;;;;;6.47;5.90;;;13.00;26.50;;;;;;6260051;22;20404;-90
2021/04/13 07:16:41;;;;;;;5.87;5.23;;;13.10;27.60;;;;;;6286123;22;20351;-88
2021/04/13 07:19:18;;;;;;;6.73;6.20;;;13.30;27.00;;;;;;6256179;22;20390;-89
2021/04/13 07:21:57;;;;;;;7.30;6.70;;;13.20;26.70;;;;;;6259779;22;20697;-89
2021/04/13 07:28:04;;;;;;;6.20;5.70;;;12.70;27.10;;;;;;6284447;22;20367;-90
2021/04/13 07:30:44;;;;;;;7.10;6.50;;;12.60;27.20;;;;;;6258125;22;20433;-89
2021/04/13 07:33:43;;;;;;;7.88;7.03;;;12.80;27.40;;;;;;6257568;22;20861;-91
2021/04/13 07:36:26;;;;;;;6.90;6.33;;;12.10;27.90;;;;;;6258916;22;20159;-91
2021/04/13 07:38:55;;;;;;;7.97;7.38;;;12.10;28.20;;;;;;6262368;22;20368;-92
2021/04/13 07:42:04;;;;;;;7.25;6.43;;;11.90;27.60;;;;;;6257014;22;20224;-91
2021/04/13 07:44:51;;;;;;;7.53;6.93;;;11.80;28.10;;;;;;6255306;22;20152;-92
2021/04/13 07:48:02;;;;;;;7.95;6.60;;;11.80;29.10;;;;;;6255538;22;20149;-91
2021/04/13 07:50:50;;;;;;;6.82;6.32;;;11.80;29.30;;;;;;6233619;22;20157;-90
2021/04/13 07:53:46;;;;;;;8.55;7.78;;;11.60;29.30;;;;;;6254841;22;20183;-89
2021/04/13 07:56:50;;;;;;;7.20;6.70;;;11.60;28.80;;;;;;6254919;22;20591;-92
2021/04/13 07:59:19;;;;;;;8.32;7.57;;;11.40;29.80;;;;;;6255067;22;20560;-91
2021/04/13 08:01:54;;;;;;;6.75;6.15;;;11.50;30.20;;;;;;6256381;22;20153;-92
2021/04/13 08:04:24;;;;;;;7.30;6.57;;;11.70;30.30;;;;;;6250196;23;20189;-90
2021/04/13 08:07:01;;;;;;;8.73;7.87;;;11.80;30.00;;;;;;6249978;23;20181;-89
2021/04/13 08:09:49;;;;;;;8.77;7.97;;;12.10;29.20;;;;;;6248985;23;20391;-88
2021/04/13 08:12:21;;;;;;;8.93;8.07;;;12.50;29.20;;;;;;6249897;23;20156;-88
2021/04/13 08:15:15;;;;;;;8.32;7.53;;;12.60;29.10;;;;;;6251919;23;20204;-87
2021/04/13 08:17:57;;;;;;;7.43;6.80;;;12.70;29.10;;;;;;6251106;23;20138;-89
2021/04/13 08:20:31;;;;;;;8.60;7.90;;;13.00;27.90;;;;;;6251651;23;20384;-89
2021/04/13 08:23:00;;;;;;;8.52;7.85;;;12.50;27.50;;;;;;6249702;23;20600;-90
2021/04/13 08:26:04;;;;;;;9.05;8.18;;;12.20;28.40;;;;;;6249931;23;20237;-88
2021/04/13 08:28:57;;;;;;;9.10;8.40;;;12.30;29.00;;;;;;6250702;23;20157;-90
2021/04/13 08:35:03;;;;;;;7.30;6.60;;;11.20;30.70;;;;;;6250354;23;20176;-89
2021/04/13 08:37:50;;;;;;;7.80;7.03;;;11.20;30.50;;;;;;6253455;23;20137;-88
2021/04/13 08:40:42;;;;;;;11.70;10.80;;;11.30;30.00;;;;;;6251102;23;20205;-90
2021/04/13 08:43:16;;;;;;;11.75;10.65;;;11.10;29.50;;;;;;6250239;23;20546;-88
2021/04/13 08:46:30;;;;;;;10.70;8.90;;;10.80;29.30;;;;;;6253366;22;20560;-88
2021/04/13 08:49:10;;;;;;;9.13;8.32;;;11.00;30.20;;;;;;6251494;22;20153;-90
2021/04/13 08:51:42;;;;;;;8.55;7.75;;;10.40;30.70;;;;;;6252415;23;20157;-89
2021/04/13 08:54:34;;;;;;;8.48;7.70;;;10.80;31.40;;;;;;6254466;23;20652;-90
2021/04/13 08:57:13;;;;;;;8.13;7.40;;;10.90;31.40;;;;;;6254570;23;20184;-90
2021/04/13 08:59:52;;;;;;;9.30;8.30;;;10.80;30.40;;;;;;6254862;22;20126;-90
2021/04/13 09:03:01;;;;;;;9.63;8.68;;;10.90;31.00;;;;;;6254462;23;20157;-90
2021/04/13 09:05:30;;;;;;;9.80;9.00;;;10.70;31.20;;;;;;6254954;23;20243;-89
2021/04/13 09:08:09;;;;;;;9.98;8.80;;;10.70;31.10;;;;;;6253967;23;20154;-92
2021/04/13 09:10:37;;;;;;;8.45;7.57;;;10.80;31.10;;;;;;6254155;23;20153;-89
2021/04/13 09:13:20;;;;;;;9.02;8.18;;;10.80;29.30;;;;;;6253360;23;20183;-90
2021/04/13 09:16:13;;;;;;;9.00;8.30;;;11.10;29.30;;;;;;6252951;23;20391;-90
2021/04/13 09:18:44;;;;;;;8.95;7.40;;;11.00;27.60;;;;;;6253389;23;20184;-90
2021/04/13 09:21:33;;;;;;;8.45;7.75;;;10.80;28.50;;;;;;6254302;23;20451;-90
2021/04/13 09:24:20;;;;;;;7.57;6.88;;;11.10;29.10;;;;;;6253997;23;20166;-90
2021/04/13 09:27:02;;;;;;;8.43;7.80;;;11.30;28.90;;;;;;6253961;23;20635;-89
2021/04/13 09:29:42;;;;;;;8.65;7.88;;;11.20;28.60;;;;;;6253192;23;20142;-91
2021/04/13 09:33:00;;;;;;;8.50;7.80;;;11.00;28.20;;;;;;6255328;23;20145;-90
2021/04/13 09:36:08;;;;;;;9.95;8.85;;;10.90;28.70;;;;;;6212975;23;20196;-92
2021/04/13 09:39:15;;;;;;;7.55;6.95;;;10.70;29.90;;;;;;6256725;23;20196;-90
2021/04/13 09:42:09;;;;;;;8.73;7.97;;;10.70;30.40;;;;;;6253746;23;20149;-92
2021/04/13 09:45:04;;;;;;;7.93;7.28;;;10.50;29.60;;;;;;6253040;23;20212;-92
2021/04/13 09:47:44;;;;;;;7.45;6.82;;;10.30;29.40;;;;;;6253548;23;20141;-90
2021/04/13 09:50:21;;;;;;;7.32;6.65;;;10.30;30.50;;;;;;6254101;23;20193;-91
2021/04/13 09:53:02;;;;;;;7.45;6.75;;;10.30;29.70;;;;;;6254149;23;20141;-92
2021/04/13 09:55:47;;;;;;;5.35;4.85;;;10.30;29.00;;;;;;6258351;23;20485;-92
2021/04/13 09:58:25;;;;;;;4.95;4.55;;;10.30;27.30;;;;;;6253182;23;20213;-93
2021/04/13 10:01:34;;;;;;;5.30;4.80;;;10.30;29.00;;;;;;6249344;23;20195;-89
2021/04/13 10:04:21;;;;;;;4.90;4.35;;;10.70;28.00;;;;;;6235267;22;20154;-91
2021/04/13 10:07:29;;;;;;;4.88;4.43;;;10.70;27.30;;;;;;6253281;22;20576;-90
2021/04/13 10:09:57;;;;;;;4.72;4.43;;;10.90;27.30;;;;;;6253517;22;20144;-90
2021/04/13 10:12:54;;;;;;;4.53;4.22;;;11.00;25.30;;;;;;6253728;22;20168;-90
2021/04/13 10:18:45;;;;;;;4.90;4.38;;;10.70;25.40;;;;;;6280945;22;20148;-90
2021/04/13 10:21:41;;;;;;;5.18;4.68;;;10.60;25.10;;;;;;6253627;22;20145;-92
2021/04/13 10:24:10;;;;;;;4.88;4.47;;;10.50;24.90;;;;;;6253486;22;20445;-92
2021/04/13 10:30:20;;;;;;;5.15;4.75;;;10.90;25.20;;;;;;6279370;22;20136;-91
2021/04/13 10:33:24;;;;;;;6.50;6.00;;;10.80;26.10;;;;;;6252678;22;20238;-90
2021/04/13 10:36:09;;;;;;;5.47;4.88;;;10.90;25.20;;;;;;6252846;22;20158;-92
2021/04/13 10:39:14;;;;;;;5.80;5.30;;;11.00;25.30;;;;;;6252292;22;20181;-91
2021/04/13 10:41:58;;;;;;;5.75;5.35;;;11.30;25.50;;;;;;6252854;22;20198;-91
2021/04/13 10:44:58;;;;;;;5.93;5.40;;;11.60;25.20;;;;;;6253417;22;20240;-90
2021/04/13 10:47:57;;;;;;;5.30;4.80;;;11.70;25.10;;;;;;6251774;22;20183;-92
2021/04/13 10:51:01;;;;;;;5.72;5.22;;;11.60;25.00;;;;;;6252137;22;20153;-90
2021/04/13 10:54:10;;;;;;;7.85;7.22;;;11.50;25.50;;;;;;6253488;22;20183;-91
2021/04/13 10:56:48;;;;;;;7.47;6.85;;;11.40;25.50;;;;;;6253310;22;20228;-90
2021/04/13 10:59:44;;;;;;;7.65;6.90;;;11.30;26.20;;;;;;6252724;22;20149;-90
2021/04/13 11:02:48;;;;;;;7.45;6.90;;;11.00;26.80;;;;;;6251967;22;20145;-90
2021/04/13 11:05:32;;;;;;;7.10;6.60;;;10.60;26.30;;;;;;6249574;23;20197;-91
2021/04/13 11:08:18;;;;;;;6.30;5.80;;;11.50;28.20;;;;;;6249032;23;20204;-92
2021/04/13 11:11:05;;;;;;;7.15;6.55;;;10.70;27.70;;;;;;6249464;23;20150;-90
2021/04/13 11:13:59;;;;;;;6.50;6.00;;;10.60;27.80;;;;;;6224113;22;20204;-90
2021/04/13 11:16:59;;;;;;;6.47;5.88;;;10.70;28.40;;;;;;6249178;23;20148;-90
2021/04/13 11:19:36;;;;;;;8.18;7.47;;;10.70;28.40;;;;;;6249481;23;20134;-91
2021/04/13 11:22:16;;;;;;;6.57;6.07;;;10.30;26.30;;;;;;6251397;23;20168;-92
2021/04/13 11:24:54;;;;;;;8.27;6.35;;;10.70;26.50;;;;;;6252897;23;20150;-91
2021/04/13 11:27:34;;;;;;;7.18;6.20;;;10.60;25.70;;;;;;6251196;23;20149;-91
2021/04/13 11:30:42;;;;;;;6.60;6.00;;;10.80;25.60;;;;;;6251936;23;20134;-92
2021/04/13 11:33:28;;;;;;;6.65;6.25;;;11.00;25.30;;;;;;6251457;23;20180;-90
2021/04/13 11:35:57;;;;;;;6.50;6.03;;;11.40;25.60;;;;;;6251893;23;20142;-91
2021/04/13 11:38:38;;;;;;;6.32;5.82;;;11.80;25.30;;;;;;6251398;23;20287;-91
2021/04/13 11:41:38;;;;;;;6.53;6.03;;;12.20;24.20;;;;;;6252961;23;20208;-91
2021/04/13 11:44:14;;;;;;;5.13;4.73;;;12.40;23.80;;;;;;6248643;22;20392;-91
2021/04/13 11:53:11;;;;;;;6.57;6.07;;;13.00;21.40;;;;;;6251902;23;20376;-91
2021/04/13 11:55:43;;;;;;;6.80;6.13;;;12.70;21.10;;;;;;6250312;23;20365;-92
2021/04/13 11:58:11;;;;;;;5.97;5.47;;;12.50;21.20;;;;;;6249591;23;20165;-91
2021/04/13 12:06:54;;;;;;;6.20;5.70;;;12.00;21.30;;;;;;6280896;22;20197;-92
2021/04/13 12:09:45;;;;;;;4.90;4.47;;;12.20;21.10;;;;;;6174161;22;20724;-90
2021/04/13 12:12:40;;;;;;;6.03;5.53;;;12.30;19.80;;;;;;6254583;22;20380;-89
2021/04/13 12:15:06;;;;;;;5.93;5.43;;;12.60;20.70;;;;;;6257511;22;20403;-88
2021/04/13 12:17:37;;;;;;;5.17;4.77;;;12.50;20.20;;;;;;6255827;22;20394;-88
2021/04/13 12:23:27;;;;;;;5.65;5.18;;;12.70;19.90;;;;;;6281892;22;20359;-88
2021/04/13 12:25:54;;;;;;;5.60;5.10;;;12.90;20.50;;;;;;6255070;22;20157;-89
2021/04/13 12:32:21;;;;;;;5.47;4.97;;;12.60;19.30;;;;;;6284871;22;20343;-90
2021/04/13 12:34:52;;;;;;;4.25;3.88;;;12.20;19.50;;;;;;6256532;22;20177;-90
2021/04/13 12:41:35;;;;;;;5.20;4.80;;;12.60;17.30;;;;;;6281027;22;20133;-89
2021/04/13 12:44:18;;;;;;;7.80;4.50;;;12.90;18.90;;;;;;6254449;22;20776;-89
2021/04/13 12:46:57;;;;;;;4.63;4.30;;;13.20;18.30;;;;;;6252772;22;20384;-88
2021/04/13 12:49:30;;;;;;;4.40;4.10;;;13.70;18.10;;;;;;6253801;22;20376;-88
2021/04/13 12:52:20;;;;;;;5.10;4.20;;;13.50;16.80;;;;;;6253284;22;20382;-88
2021/04/13 12:54:47;;;;;;;4.80;4.50;;;13.20;15.00;;;;;;6253396;22;20817;-92
2021/04/13 13:04:22;;;;;;;4.57;3.90;;;12.40;15.00;;;;;;6282384;22;20688;-92
2021/04/13 13:06:53;;;;;;;6.40;3.30;;;12.50;16.60;;;;;;6225012;23;20166;-90
2021/04/13 13:09:38;;;;;;;4.53;4.23;;;12.40;16.80;;;;;;6224206;23;20199;-90
2021/04/13 13:18:52;;;;;;;3.40;3.10;;;13.50;16.70;;;;;;6111751;23;20377;-93
2021/04/13 13:24:40;;;;;;;3.70;3.33;;;13.40;14.00;;;;;;6264887;23;20347;-91
2021/04/13 13:30:27;;;;;;;5.07;4.10;;;13.80;14.60;;;;;;6260617;23;20184;-93
2021/04/13 13:33:12;;;;;;;5.20;4.37;;;14.00;16.40;;;;;;6230222;23;20364;-93
2021/04/13 13:35:38;;;;;;;6.47;5.97;;;13.90;16.60;;;;;;6207740;23;20164;-92
2021/04/13 13:41:59;;;;;;;4.80;4.40;;;12.90;17.30;;;;;;6257374;23;20332;-94
2021/04/13 13:44:44;;;;;;;6.13;4.63;;;12.90;18.90;;;;;;6225505;23;20153;-92
2021/04/13 13:47:57;;;;;;;4.77;4.47;;;12.90;18.80;;;;;;6227199;23;20153;-96
2021/04/13 13:53:28;;;;;;;6.70;4.57;;;12.60;19.40;;;;;;6253539;23;20565;-94
2021/04/13 13:56:00;;;;;;;4.68;4.28;;;12.80;20.10;;;;;;6230386;23;20381;-94
2021/04/13 13:59:14;;;;;;;4.50;4.10;;;12.50;19.80;;;;;;6227230;23;20181;-92
2021/04/13 14:01:40;;;;;;;5.10;4.22;;;12.00;19.50;;;;;;6228636;23;20153;-94
2021/04/13 14:04:10;;;;;;;4.90;4.50;;;11.90;20.30;;;;;;6226962;23;20154;-92
2021/04/13 14:06:36;;;;;;;4.28;3.88;;;12.30;20.60;;;;;;6248348;22;20524;-94
2021/04/13 14:09:17;;;;;;;5.20;4.80;;;12.10;20.30;;;;;;6252917;23;20155;-93
2021/04/13 14:11:43;;;;;;;4.03;3.72;;;12.60;19.80;;;;;;6250348;23;20164;-92
2021/04/13 14:14:26;;;;;;;3.90;3.65;;;12.40;19.40;;;;;;6252588;23;20185;-95
2021/04/13 14:16:53;;;;;;;4.40;4.00;;;12.30;19.20;;;;;;6251314;23;20223;-95
2021/04/13 14:19:36;;;;;;;3.40;3.10;;;12.20;19.20;;;;;;6250573;23;20146;-95
2021/04/13 14:22:13;;;;;;;3.22;2.67;;;12.50;17.40;;;;;;6251096;23;20169;-95
2021/04/13 14:25:07;;;;;;;3.40;3.10;;;12.40;17.80;;;;;;6256437;23;20180;-95
2021/04/13 14:27:33;;;;;;;3.38;3.08;;;12.40;18.10;;;;;;6253147;23;20150;-95
2021/04/13 14:30:08;;;;;;;3.58;3.20;;;12.00;18.50;;;;;;6255640;23;20145;-95
2021/04/13 14:32:39;;;;;;;5.00;4.60;;;12.20;21.10;;;;;;6259705;23;20137;-94
2021/04/13 14:39:16;;;;;;;4.35;3.95;;;11.20;22.70;;;;;;6256245;23;20133;-94
2021/04/13 14:41:42;;;;;;;4.50;4.10;;;11.50;23.10;;;;;;6252211;23;20150;-91
2021/04/13 14:44:16;;;;;;;4.03;3.70;;;11.60;23.50;;;;;;6248604;23;20142;-92
2021/04/13 14:46:41;;;;;;;4.35;3.95;;;11.30;24.00;;;;;;6248482;23;20185;-92
2021/04/13 14:49:17;;;;;;;4.07;3.77;;;11.40;24.30;;;;;;6249662;23;20161;-91
2021/04/13 14:51:43;;;;;;;4.45;4.05;;;11.30;23.40;;;;;;6250876;23;20224;-91
2021/04/13 14:54:09;;;;;;;4.47;4.07;;;11.60;22.80;;;;;;6252582;23;20505;-92
2021/04/13 14:56:50;;;;;;;3.58;3.38;;;11.20;22.30;;;;;;6250651;23;20141;-91
2021/04/13 14:59:15;;;;;;;3.95;3.20;;;11.20;21.00;;;;;;6251504;23;20146;-91
2021/04/13 15:01:41;;;;;;;3.50;3.20;;;11.50;20.60;;;;;;6252507;23;20188;-91
2021/04/13 15:04:07;;;;;;;6.63;3.30;;;11.90;20.40;;;;;;6253279;23;20150;-92
2021/04/13 15:06:33;;;;;;;5.90;5.20;;;12.00;18.90;;;;;;6257528;22;20231;-90
2021/04/13 15:09:09;;;;;;;3.80;3.50;;;11.50;18.00;;;;;;6258513;22;20152;-90
2021/04/13 15:11:35;;;;;;;3.50;3.20;;;11.90;19.90;;;;;;6256627;22;20156;-91
2021/04/13 15:14:14;;;;;;;3.80;3.50;;;11.40;19.10;;;;;;6258695;22;20180;-89
2021/04/13 15:16:40;;;;;;;3.60;3.30;;;11.60;19.30;;;;;;6256325;22;20149;-90
2021/04/13 15:19:20;;;;;;;3.00;2.80;;;11.50;19.30;;;;;;6255495;22;20145;-90
2021/04/13 15:21:50;;;;;;;3.20;2.40;;;11.80;18.80;;;;;;6256447;22;20148;-90
2021/04/13 15:24:26;;;;;;;3.35;3.03;;;11.90;18.80;;;;;;6256749;22;20156;-90
2021/04/13 15:26:55;;;;;;;3.55;3.25;;;12.30;19.20;;;;;;6256922;22;20153;-89
2021/04/13 15:29:27;;;;;;;3.75;3.45;;;12.50;18.50;;;;;;6257299;22;20156;-91
2021/04/13 15:31:58;;;;;;;3.60;3.10;;;12.30;20.10;;;;;;6257381;22;20527;-90
2021/04/13 15:34:38;;;;;;;3.40;3.10;;;12.10;21.40;;;;;;6257477;22;20259;-90
2021/04/13 15:37:22;;;;;;;4.13;3.72;;;11.90;21.20;;;;;;6256773;22;20591;-91
2021/04/13 15:39:49;;;;;;;5.00;4.25;;;12.00;22.30;;;;;;6257085;22;20145;-92
2021/04/13 15:42:33;;;;;;;4.43;3.92;;;11.10;24.40;;;;;;6258011;22;20159;-92
2021/04/13 15:45:32;;;;;;;4.40;4.00;;;11.00;25.60;;;;;;6258519;22;20480;-92
2021/04/13 15:48:05;;;;;;;4.88;3.45;;;10.80;24.30;;;;;;6258576;22;20156;-93
2021/04/13 15:50:34;;;;;;;3.85;2.72;;;10.90;24.40;;;;;;6284909;22;20186;-91
2021/04/13 15:53:24;;;;;;;3.40;3.10;;;10.70;24.50;;;;;;6257558;22;20582;-91
2021/04/13 15:55:54;;;;;;;4.57;3.40;;;11.00;22.50;;;;;;6256450;22;20145;-90
2021/04/13 15:58:21;;;;;;;2.80;2.60;;;11.20;22.40;;;;;;6256334;22;20538;-90
2021/04/13 16:00:48;;;;;;;3.08;2.78;;;11.00;20.40;;;;;;6255452;22;20145;-90
2021/04/13 16:03:26;;;;;;;4.10;2.75;;;11.10;21.10;;;;;;6260149;22;20171;-90
2021/04/13 16:05:57;;;;;;;2.70;2.50;;;11.00;20.10;;;;;;6261059;22;20200;-91
2021/04/13 16:47:16;;;;;;;3.22;2.83;;;12.50;17.20;;;;;;6252611;22;20181;-90
2021/04/13 16:49:42;;;;;;;3.28;2.67;;;12.50;17.70;;;;;;6257422;22;20538;-90
2021/04/13 16:52:12;;;;;;;3.47;3.25;;;12.60;18.30;;;;;;6257726;22;20168;-89
2021/04/13 16:54:39;;;;;;;3.10;2.90;;;12.50;18.20;;;;;;6254180;22;20612;-90
2021/04/13 16:57:05;;;;;;;3.53;3.20;;;12.00;19.70;;;;;;6253795;22;20239;-91
2021/04/13 16:59:33;;;;;;;5.50;3.60;;;11.90;19.90;;;;;;6254059;22;20160;-92
2021/04/13 17:02:22;;;;;;;3.05;2.75;;;11.60;20.20;;;;;;6254079;22;20137;-90
2021/04/13 17:04:59;;;;;;;3.80;3.50;;;11.50;20.00;;;;;;6254400;22;20487;-90
2021/04/13 17:07:52;;;;;;;5.35;4.22;;;11.80;20.10;;;;;;6253093;22;20527;-90
2021/04/13 17:10:28;;;;;;;3.40;3.03;;;11.50;20.10;;;;;;6252355;22;20179;-91
2021/04/13 17:13:03;;;;;;;3.80;3.50;;;11.50;20.70;;;;;;6252654;22;20149;-90
2021/04/13 17:15:35;;;;;;;4.30;4.00;;;11.30;20.60;;;;;;6251934;22;20137;-90
2021/04/13 17:18:05;;;;;;;3.45;3.13;;;11.50;21.00;;;;;;6253326;22;20686;-91
2021/04/13 17:20:36;;;;;;;4.47;4.07;;;11.70;21.10;;;;;;6255252;22;20232;-89
2021/04/13 17:23:09;;;;;;;4.50;4.10;;;11.20;20.50;;;;;;6252552;22;20138;-89
2021/04/13 17:25:37;;;;;;;5.78;3.15;;;11.30;20.90;;;;;;6260732;22;20141;-90
2021/04/13 17:28:37;;;;;;;4.30;3.90;;;10.90;20.60;;;;;;6291524;22;20129;-90
2021/04/13 17:31:06;;;;;;;3.13;2.92;;;11.10;20.70;;;;;;6266265;22;20148;-89
2021/04/13 17:33:34;;;;;;;3.05;2.75;;;11.00;20.90;;;;;;6264887;22;20157;-89
2021/04/13 17:36:19;;;;;;;3.20;2.90;;;11.40;20.70;;;;;;6263153;22;20134;-92
2021/04/13 17:42:46;;;;;;;3.20;3.00;;;12.00;19.40;;;;;;6294575;22;20212;-92
2021/04/13 17:45:16;;;;;;;3.63;3.33;;;12.40;19.40;;;;;;6287571;22;20603;-93
2021/04/13 17:51:44;;;;;;;4.65;2.63;;;12.00;18.90;;;;;;6264585;23;20137;-94
2021/04/13 17:54:15;;;;;;;3.83;3.53;;;12.10;19.50;;;;;;6259627;23;20636;-93
2021/04/13 17:56:50;;;;;;;5.40;4.22;;;11.90;19.80;;;;;;6255528;23;20145;-92
2021/04/13 18:03:32;;;;;;;5.65;5.15;;;11.10;20.00;;;;;;6260264;23;20152;-93
2021/04/13 18:06:02;;;;;;;7.65;4.72;;;11.10;20.80;;;;;;6257810;23;20150;-91
2021/04/13 18:08:55;;;;;;;4.90;4.25;;;11.00;21.10;;;;;;6256087;23;20160;-91
2021/04/13 18:11:26;;;;;;;4.50;4.07;;;11.00;22.30;;;;;;6256027;23;20150;-90
2021/04/13 19:08:47;;;;;;;4.05;3.70;;;8.40;29.80;;;;;;6281796;22;20205;-93
2021/04/13 19:11:23;;;;;;;5.32;4.10;;;8.40;30.50;;;;;;6253987;22;20183;-94
2021/04/13 19:14:32;;;;;;;4.40;4.00;;;8.40;30.90;;;;;;6251065;22;20477;-94
2021/04/13 19:17:04;;;;;;;6.15;4.03;;;8.10;30.60;;;;;;6258903;22;20153;-92
2021/04/13 19:19:46;;;;;;;4.90;3.88;;;8.10;30.80;;;;;;6257941;22;20149;-93
2021/04/13 19:29:23;;;;;;;7.20;4.60;;;7.90;31.70;;;;;;6138365;23;20257;-96
2021/04/13 19:38:12;;;;;;;5.80;5.32;;;7.70;32.40;;;;;;6135887;23;20643;-95
2021/04/13 19:45:05;;;;;;;5.35;4.85;;;8.00;33.10;;;;;;6142883;23;20240;-94
2021/04/13 19:57:30;;;;;;;7.47;3.95;;;7.40;33.50;;;;;;6046920;23;20155;-95
2021/04/13 20:03:19;;;;;;;3.45;3.15;;;7.10;34.50;;;;;;6176022;23;20158;-94
2021/04/13 20:06:04;;;;;;;3.17;2.55;;;7.00;35.10;;;;;;6188919;23;20147;-94
2021/04/13 20:09:25;;;;;;;3.58;2.88;;;6.50;35.80;;;;;;6228953;22;20272;-92
2021/04/13 20:12:01;;;;;;;2.78;2.58;;;5.60;36.50;;;;;;6254193;22;20632;-93
2021/04/13 20:15:16;;;;;;;5.50;3.53;;;6.10;37.60;;;;;;6280201;22;20180;-94
2021/04/13 20:17:45;;;;;;;9.18;4.90;;;6.00;37.60;;;;;;6254301;22;20145;-93
2021/04/13 20:21:04;;;;;;;5.47;4.65;;;6.30;37.70;;;;;;6254079;22;20487;-94
2021/04/13 20:23:39;;;;;;;4.85;4.45;;;6.20;37.60;;;;;;6205646;22;20650;-93
2021/04/13 20:26:15;;;;;;;3.20;2.67;;;6.10;37.90;;;;;;6254524;22;20172;-94
2021/04/13 20:28:52;;;;;;;2.85;2.42;;;6.20;38.50;;;;;;6256314;22;20145;-93
2021/04/13 20:31:23;;;;;;;4.03;3.00;;;6.10;37.70;;;;;;6254245;22;20156;-93
2021/04/13 20:40:23;;;;;;;6.18;2.45;;;5.40;39.40;;;;;;6280956;22;20170;-93
2021/04/13 20:43:03;;;;;;;1.95;1.75;;;4.90;39.20;;;;;;6253628;22;20141;-93
2021/04/13 20:45:29;;;;;;;3.38;2.33;;;4.80;40.10;;;;;;6256067;22;20151;-95
2021/04/13 20:51:24;;;;;;;2.92;2.10;;;4.40;41.10;;;;;;6292154;22;20378;-96
2021/04/13 20:57:53;;;;;;;2.70;1.98;;;4.00;41.80;;;;;;6284978;22;20461;-96
